Time;durP1;ratioP1;P1;durP2;ratioP2;P2;SDS_P1;SDS_P2;PMS_P1;PMS_P2;Temp;Humidity;BMP_temperature;BMP_pressure;BME280_temperature;BME280_humidity;BME280_pressure;Samples;Min_cycle;Max_cycle;Signal;HPM_P1;HPM_P2
2021/07/11 00:01:46;;;;;;;11.25;8.73;;;21.60;81.00;;;;;;4920283;29;20030;-90
2021/07/11 00:04:12;;;;;;;12.23;8.38;;;21.50;80.90;;;;;;4918654;29;20051;-89
2021/07/11 00:06:37;;;;;;;13.02;8.77;;;21.50;80.90;;;;;;4901726;29;20058;-89
2021/07/11 00:09:05;;;;;;;13.75;8.38;;;21.50;81.10;;;;;;4919886;29;20504;-89
2021/07/11 00:11:30;;;;;;;11.50;8.52;;;21.50;81.10;;;;;;4920173;29;20167;-89
2021/07/11 00:14:00;;;;;;;13.70;9.02;;;21.50;81.00;;;;;;4937629;29;20064;-90
2021/07/11 00:16:26;;;;;;;11.52;9.27;;;21.50;81.10;;;;;;4937228;29;20397;-89
2021/07/11 00:18:51;;;;;;;11.95;8.82;;;21.50;81.60;;;;;;4920082;29;20031;-89
2021/07/11 00:21:17;;;;;;;14.18;9.02;;;21.50;81.20;;;;;;4920338;29;20028;-89
2021/07/11 00:23:42;;;;;;;12.25;9.32;;;21.50;81.20;;;;;;4920019;29;20032;-90
2021/07/11 00:26:08;;;;;;;11.63;9.00;;;21.50;81.30;;;;;;4920341;29;20033;-89
2021/07/11 00:28:33;;;;;;;12.25;9.07;;;21.40;81.20;;;;;;4919940;29;20502;-89
2021/07/11 00:30:59;;;;;;;11.98;9.00;;;21.40;81.30;;;;;;4919652;29;20027;-90
2021/07/11 00:33:24;;;;;;;11.73;8.90;;;21.40;81.20;;;;;;4922457;29;20024;-89
2021/07/11 00:35:50;;;;;;;13.93;9.10;;;21.40;81.60;;;;;;4920136;29;20083;-89
2021/07/11 00:38:15;;;;;;;12.27;9.45;;;21.40;81.50;;;;;;4929556;29;20122;-89
2021/07/11 00:40:41;;;;;;;10.20;8.10;;;21.40;81.40;;;;;;4936317;29;20036;-89
2021/07/11 00:43:06;;;;;;;11.93;9.05;;;21.40;81.40;;;;;;4920239;29;20182;-89
2021/07/11 00:45:32;;;;;;;10.43;8.70;;;21.40;81.40;;;;;;4916430;29;20553;-88
2021/07/11 00:47:57;;;;;;;13.15;9.35;;;21.40;81.40;;;;;;4919928;29;20036;-89
2021/07/11 00:50:23;;;;;;;12.90;9.13;;;21.40;81.40;;;;;;4919691;29;20036;-89
2021/07/11 00:52:49;;;;;;;12.05;9.02;;;21.30;81.40;;;;;;4936943;29;20023;-89
2021/07/11 00:55:14;;;;;;;11.52;9.27;;;21.30;81.50;;;;;;4919595;29;20054;-90
2021/07/11 00:57:40;;;;;;;12.35;9.23;;;21.30;81.50;;;;;;4920036;29;20024;-88
2021/07/11 01:00:11;;;;;;;11.10;8.68;;;21.30;81.70;;;;;;4936420;29;20382;-89
2021/07/11 01:02:54;;;;;;;11.35;9.25;;;21.30;81.80;;;;;;4919591;29;20486;-89
2021/07/11 01:05:23;;;;;;;10.85;8.40;;;21.30;81.80;;;;;;4919436;29;20046;-89
2021/07/11 01:08:02;;;;;;;12.73;8.73;;;21.30;81.80;;;;;;4919201;29;20124;-90
2021/07/11 01:10:37;;;;;;;11.60;8.63;;;21.30;82.00;;;;;;4936687;29;20024;-89
2021/07/11 01:13:06;;;;;;;11.85;9.23;;;21.30;81.60;;;;;;4919462;29;20114;-89
2021/07/11 01:15:33;;;;;;;11.63;8.07;;;21.30;81.70;;;;;;4916109;29;20048;-89
2021/07/11 01:18:01;;;;;;;11.90;9.23;;;21.30;81.80;;;;;;4918900;29;20071;-89
2021/07/11 01:20:49;;;;;;;12.15;8.95;;;21.30;81.80;;;;;;4917717;29;20028;-89
2021/07/11 01:23:35;;;;;;;12.55;9.18;;;21.30;82.00;;;;;;4918527;29;20424;-89
2021/07/11 01:26:02;;;;;;;11.93;9.13;;;21.30;81.90;;;;;;4919436;29;20059;-89
2021/07/11 01:28:29;;;;;;;11.43;9.57;;;21.20;81.80;;;;;;4918845;29;20024;-89
2021/07/11 01:30:55;;;;;;;12.68;9.38;;;21.20;81.80;;;;;;4921805;29;20024;-89
2021/07/11 01:33:23;;;;;;;10.82;8.75;;;21.20;81.80;;;;;;4915944;29;20020;-89
2021/07/11 01:35:49;;;;;;;10.88;8.52;;;21.20;81.40;;;;;;4916002;29;20122;-89
2021/07/11 01:38:16;;;;;;;12.02;8.82;;;21.20;81.90;;;;;;4916005;29;20522;-89
2021/07/11 01:40:46;;;;;;;14.32;9.60;;;21.20;82.10;;;;;;4900171;29;20028;-89
2021/07/11 01:43:15;;;;;;;11.80;9.30;;;21.20;81.90;;;;;;4900304;29;20529;-88
2021/07/11 01:45:42;;;;;;;13.25;9.70;;;21.20;82.30;;;;;;4917204;29;20024;-89
2021/07/11 01:48:08;;;;;;;12.75;9.68;;;21.20;82.00;;;;;;4912144;29;20024;-89
2021/07/11 01:50:34;;;;;;;13.55;9.20;;;21.20;81.50;;;;;;4907415;29;20038;-89
2021/07/11 01:52:59;;;;;;;10.95;8.90;;;21.20;81.80;;;;;;4918619;29;20016;-90
2021/07/11 01:55:28;;;;;;;12.85;9.10;;;21.20;82.20;;;;;;4918601;29;20020;-89
2021/07/11 01:57:54;;;;;;;10.68;8.25;;;21.20;82.30;;;;;;4918832;29;20051;-89
2021/07/11 02:00:20;;;;;;;12.50;9.00;;;21.10;82.40;;;;;;4918485;29;20474;-89
2021/07/11 02:05:26;;;;;;;10.73;8.40;;;21.10;82.20;;;;;;4892601;29;20084;-92
2021/07/11 02:07:52;;;;;;;11.23;8.30;;;21.10;82.30;;;;;;4905239;29;20040;-91
2021/07/11 02:10:18;;;;;;;11.68;8.57;;;21.10;82.40;;;;;;4884816;29;20024;-91
2021/07/11 02:12:57;;;;;;;10.85;9.18;;;21.10;82.70;;;;;;4881761;29;20068;-91
2021/07/11 02:15:29;;;;;;;11.25;8.88;;;21.10;82.90;;;;;;4861889;29;20045;-90
2021/07/11 02:17:57;;;;;;;12.15;8.50;;;21.10;83.00;;;;;;4879891;29;20017;-90
2021/07/11 02:20:24;;;;;;;12.82;8.60;;;21.10;83.10;;;;;;4880673;29;20028;-92
2021/07/11 02:22:53;;;;;;;12.57;8.95;;;21.10;82.80;;;;;;4879920;29;20029;-91
2021/07/11 02:25:21;;;;;;;13.20;8.75;;;21.10;82.80;;;;;;4880181;29;20036;-92
2021/07/11 02:27:49;;;;;;;13.60;8.77;;;21.10;82.70;;;;;;4880058;29;20131;-92
2021/07/11 02:30:17;;;;;;;11.23;8.57;;;21.10;82.90;;;;;;4879811;29;20363;-89
2021/07/11 02:32:47;;;;;;;10.90;8.82;;;21.10;83.50;;;;;;4879502;29;20103;-91
2021/07/11 02:35:15;;;;;;;11.87;9.30;;;21.10;83.70;;;;;;4883073;29;20101;-91
2021/07/11 02:37:47;;;;;;;13.05;8.65;;;21.10;83.80;;;;;;4882474;29;20037;-91
2021/07/11 02:40:14;;;;;;;11.77;9.05;;;21.10;84.00;;;;;;4883267;29;20029;-92
2021/07/11 02:42:41;;;;;;;12.60;8.57;;;21.10;83.90;;;;;;4869538;29;20494;-91
2021/07/11 02:45:07;;;;;;;13.35;9.25;;;21.10;83.80;;;;;;4873872;29;20028;-91
2021/07/11 02:47:37;;;;;;;12.23;9.68;;;21.10;83.90;;;;;;4883031;29;20076;-91
2021/07/11 02:50:05;;;;;;;12.30;9.02;;;21.10;84.00;;;;;;4882959;29;20036;-91
2021/07/11 02:52:31;;;;;;;13.45;9.23;;;21.00;83.90;;;;;;4882723;29;20017;-91
2021/07/11 02:55:07;;;;;;;12.48;8.52;;;21.10;84.30;;;;;;4899472;29;20028;-91
2021/07/11 02:57:35;;;;;;;13.48;9.35;;;21.10;84.00;;;;;;4882941;29;20355;-91
2021/07/11 03:00:03;;;;;;;13.27;9.48;;;21.00;84.10;;;;;;4876908;29;20021;-91
2021/07/11 03:02:29;;;;;;;11.77;8.82;;;21.00;84.20;;;;;;4873750;29;20032;-91
2021/07/11 03:04:56;;;;;;;10.50;8.57;;;21.00;84.20;;;;;;4882649;29;20474;-92
2021/07/11 03:07:22;;;;;;;12.70;9.23;;;21.00;84.40;;;;;;4878679;29;20025;-92
2021/07/11 03:09:47;;;;;;;12.85;9.32;;;21.10;84.50;;;;;;4865109;29;20051;-91
2021/07/11 03:12:15;;;;;;;10.27;8.60;;;21.00;84.60;;;;;;4864227;29;20028;-92
2021/07/11 03:14:42;;;;;;;10.95;8.57;;;21.00;84.30;;;;;;4870771;29;20048;-91
2021/07/11 03:17:10;;;;;;;13.07;9.75;;;21.00;84.20;;;;;;4881475;29;20363;-91
2021/07/11 03:19:39;;;;;;;11.77;9.43;;;21.00;83.70;;;;;;4879077;29;20057;-90
2021/07/11 03:22:05;;;;;;;11.55;8.88;;;21.00;84.00;;;;;;4892273;29;20033;-91
2021/07/11 03:24:31;;;;;;;11.82;9.32;;;21.00;83.80;;;;;;4870819;29;20311;-90
2021/07/11 03:26:58;;;;;;;11.15;8.85;;;21.00;83.80;;;;;;4879101;29;20088;-91
2021/07/11 03:29:39;;;;;;;10.90;8.93;;;21.00;84.00;;;;;;4865173;29;20531;-91
2021/07/11 03:32:08;;;;;;;12.32;8.93;;;21.00;84.10;;;;;;4880537;29;20404;-92
2021/07/11 03:34:34;;;;;;;11.77;8.63;;;21.10;84.00;;;;;;4863328;29;20502;-91
2021/07/11 03:37:08;;;;;;;11.18;8.18;;;21.00;84.20;;;;;;4863464;29;20025;-91
2021/07/11 03:39:38;;;;;;;11.98;8.73;;;21.00;84.40;;;;;;4880396;29;20024;-91
2021/07/11 03:42:07;;;;;;;11.45;8.93;;;21.00;84.50;;;;;;4870129;29;20032;-91
2021/07/11 03:44:34;;;;;;;10.43;8.50;;;21.00;84.60;;;;;;4881819;29;20513;-92
2021/07/11 03:47:02;;;;;;;10.75;8.70;;;21.00;84.60;;;;;;4882087;29;20037;-92
2021/07/11 03:49:29;;;;;;;11.18;8.55;;;21.00;84.60;;;;;;4867137;29;20021;-90
2021/07/11 03:52:00;;;;;;;10.55;7.85;;;20.90;84.60;;;;;;4863450;29;20460;-92
2021/07/11 03:54:26;;;;;;;12.40;9.20;;;20.90;84.80;;;;;;4863023;29;20039;-92
2021/07/11 03:56:52;;;;;;;10.55;8.52;;;21.00;84.90;;;;;;4863127;29;20061;-90
2021/07/11 03:59:19;;;;;;;10.35;8.15;;;21.00;84.90;;;;;;4880045;29;20048;-91
2021/07/11 04:01:46;;;;;;;10.57;8.35;;;20.90;84.80;;;;;;4879737;29;20031;-91
2021/07/11 04:04:18;;;;;;;10.40;8.20;;;21.00;84.90;;;;;;4898052;29;20032;-91
2021/07/11 04:06:50;;;;;;;13.10;8.68;;;21.00;85.00;;;;;;4898618;29;20074;-91
2021/07/11 04:09:21;;;;;;;11.38;8.32;;;20.90;85.20;;;;;;4881646;29;20437;-92
2021/07/11 04:11:47;;;;;;;;;;;20.90;85.10;;;;;;4878791;29;20437;-92
2021/07/11 04:14:18;;;;;;;10.88;7.82;;;20.90;84.80;;;;;;4879385;29;19904;-91
2021/07/11 04:16:47;;;;;;;10.20;7.83;;;21.00;85.20;;;;;;4882606;29;20088;-92
2021/07/11 04:19:19;;;;;;;11.63;8.32;;;20.90;85.20;;;;;;4881472;29;20021;-91
2021/07/11 04:21:47;;;;;;;10.95;8.23;;;20.90;85.20;;;;;;4881400;29;20028;-91
2021/07/11 04:24:13;;;;;;;11.32;8.38;;;21.00;85.40;;;;;;4880962;29;20053;-92
2021/07/11 04:26:39;;;;;;;10.80;8.13;;;20.90;85.40;;;;;;4876798;29;20028;-92
2021/07/11 04:29:05;;;;;;;10.20;8.18;;;20.90;85.40;;;;;;4862507;29;20471;-91
2021/07/11 04:31:31;;;;;;;12.02;8.05;;;20.90;85.40;;;;;;4873674;29;20024;-91
2021/07/11 04:33:56;;;;;;;11.45;8.52;;;20.90;85.50;;;;;;4880677;29;20489;-92
2021/07/11 04:36:22;;;;;;;10.18;8.43;;;20.90;85.30;;;;;;4862618;29;20016;-92
2021/07/11 04:38:47;;;;;;;12.32;8.60;;;20.90;85.60;;;;;;4879133;29;20144;-92
2021/07/11 04:41:13;;;;;;;11.15;8.60;;;20.90;85.60;;;;;;4862531;29;20080;-91
2021/07/11 04:43:39;;;;;;;9.75;8.05;;;20.90;85.60;;;;;;4862104;29;20124;-92
2021/07/11 04:46:05;;;;;;;11.63;9.00;;;20.90;85.80;;;;;;4863464;29;20123;-92
2021/07/11 04:48:30;;;;;;;10.32;7.90;;;20.90;85.70;;;;;;4869221;29;20517;-92
2021/07/11 04:50:56;;;;;;;11.50;8.55;;;20.90;85.50;;;;;;4862441;29;20031;-92
2021/07/11 04:53:22;;;;;;;12.95;8.75;;;20.90;85.20;;;;;;4848802;29;20018;-92
2021/07/11 04:55:48;;;;;;;12.27;8.70;;;20.90;85.20;;;;;;4863032;29;20021;-91
2021/07/11 04:58:15;;;;;;;11.18;8.68;;;20.90;84.90;;;;;;4898058;29;20021;-92
2021/07/11 05:00:41;;;;;;;13.65;8.73;;;21.00;85.00;;;;;;4869021;29;20032;-92
2021/07/11 05:03:07;;;;;;;12.10;8.52;;;21.00;85.00;;;;;;4865948;29;20033;-90
2021/07/11 05:05:35;;;;;;;11.57;8.50;;;21.00;85.00;;;;;;4866996;29;20023;-93
2021/07/11 05:08:02;;;;;;;11.07;8.45;;;21.00;84.90;;;;;;4880856;29;20413;-90
2021/07/11 05:10:27;;;;;;;11.07;8.73;;;21.00;85.10;;;;;;4853167;29;20105;-90
2021/07/11 05:12:53;;;;;;;13.98;8.73;;;21.00;85.00;;;;;;4843745;29;20554;-91
2021/07/11 05:15:18;;;;;;;13.00;8.30;;;21.00;85.20;;;;;;4843547;29;20029;-91
2021/07/11 05:17:44;;;;;;;11.77;8.68;;;21.00;85.20;;;;;;4844027;29;20030;-90
2021/07/11 05:20:10;;;;;;;11.02;8.10;;;21.00;85.20;;;;;;4845705;29;20057;-90
2021/07/11 05:22:35;;;;;;;11.77;8.77;;;21.10;85.30;;;;;;4877865;29;20029;-90
2021/07/11 05:25:01;;;;;;;11.20;8.38;;;21.10;85.30;;;;;;4878540;29;20112;-90
2021/07/11 05:27:27;;;;;;;12.02;8.57;;;21.10;85.50;;;;;;4877470;29;20624;-92
2021/07/11 05:29:53;;;;;;;10.60;8.27;;;21.10;85.80;;;;;;4877404;29;20510;-91
2021/07/11 05:32:18;;;;;;;11.65;9.38;;;21.10;85.50;;;;;;4880357;29;20104;-92
2021/07/11 05:34:44;;;;;;;9.90;8.18;;;21.10;86.10;;;;;;4877038;29;20113;-91
2021/07/11 05:37:09;;;;;;;10.48;8.43;;;21.10;85.80;;;;;;4880532;29;20031;-92
2021/07/11 05:39:35;;;;;;;10.70;8.70;;;21.10;86.30;;;;;;4880396;29;20032;-92
2021/07/11 05:42:00;;;;;;;12.00;9.18;;;21.20;86.40;;;;;;4880464;29;20518;-92
2021/07/11 05:44:26;;;;;;;10.93;8.40;;;21.10;86.40;;;;;;4880119;29;20029;-92
2021/07/11 05:46:51;;;;;;;14.55;10.07;;;21.10;86.40;;;;;;4877201;29;20032;-92
2021/07/11 05:49:17;;;;;;;12.35;9.45;;;21.20;86.00;;;;;;4880293;29;20039;-92
2021/07/11 05:51:42;;;;;;;13.73;9.88;;;21.20;86.50;;;;;;4897194;29;20020;-91
2021/07/11 05:54:08;;;;;;;12.43;9.30;;;21.20;86.20;;;;;;4859397;29;20056;-91
2021/07/11 05:56:33;;;;;;;11.15;8.75;;;21.20;86.10;;;;;;4864843;29;20028;-91
2021/07/11 05:58:59;;;;;;;13.57;8.95;;;21.10;85.90;;;;;;4868092;29;20029;-91
2021/07/11 06:01:25;;;;;;;11.55;8.93;;;21.20;85.80;;;;;;4861675;29;20060;-91
2021/07/11 06:03:50;;;;;;;10.77;8.02;;;21.20;85.60;;;;;;4879508;29;20116;-91
2021/07/11 06:06:16;;;;;;;11.75;8.20;;;21.30;85.40;;;;;;4880309;29;20372;-92
2021/07/11 06:08:41;;;;;;;11.00;7.63;;;21.20;85.80;;;;;;4882674;29;20386;-91
2021/07/11 06:11:07;;;;;;;12.68;8.45;;;21.30;85.10;;;;;;4883588;29;20067;-91
2021/07/11 06:13:32;;;;;;;9.82;7.13;;;21.30;85.00;;;;;;4899713;29;20024;-91
2021/07/11 06:15:58;;;;;;;9.85;7.07;;;21.30;84.70;;;;;;4880389;29;20108;-91
2021/07/11 06:18:23;;;;;;;9.50;7.20;;;21.30;84.40;;;;;;4880336;29;20503;-91
2021/07/11 06:20:49;;;;;;;10.65;7.40;;;21.40;84.50;;;;;;4881514;29;20037;-91
2021/07/11 06:23:15;;;;;;;10.13;7.55;;;21.30;84.60;;;;;;4864958;29;20460;-91
2021/07/11 06:25:41;;;;;;;11.77;8.80;;;21.40;84.70;;;;;;4874961;29;20028;-91
2021/07/11 06:28:06;;;;;;;11.98;8.80;;;21.40;85.20;;;;;;4884277;29;20033;-92
2021/07/11 06:30:32;;;;;;;11.43;8.90;;;21.40;84.90;;;;;;4883566;29;20092;-90
2021/07/11 06:32:58;;;;;;;13.30;8.10;;;21.50;85.20;;;;;;4883602;29;20025;-90
2021/07/11 06:35:24;;;;;;;11.10;8.20;;;21.50;84.80;;;;;;4900117;29;20506;-91
2021/07/11 06:37:50;;;;;;;14.65;8.90;;;21.50;84.90;;;;;;4883401;29;20028;-90
2021/07/11 06:40:18;;;;;;;12.88;8.88;;;21.50;85.20;;;;;;4877472;29;20029;-91
2021/07/11 06:42:44;;;;;;;12.75;8.50;;;21.50;84.50;;;;;;4846148;29;20033;-91
2021/07/11 06:45:12;;;;;;;13.05;9.07;;;21.60;84.60;;;;;;4845867;29;20033;-90
2021/07/11 06:47:38;;;;;;;14.65;10.45;;;21.60;85.30;;;;;;4846025;29;20052;-90
2021/07/11 06:50:07;;;;;;;11.93;9.68;;;21.60;86.10;;;;;;4846123;29;20030;-91
2021/07/11 06:52:34;;;;;;;14.07;10.90;;;21.60;86.10;;;;;;4846345;29;20033;-91
2021/07/11 06:55:02;;;;;;;15.45;9.57;;;21.70;86.30;;;;;;4865228;29;20032;-90
2021/07/11 06:57:28;;;;;;;11.93;9.52;;;21.70;85.90;;;;;;4864320;29;20030;-91
2021/07/11 06:59:58;;;;;;;16.73;10.57;;;21.80;85.00;;;;;;4864752;29;20173;-90
2021/07/11 07:02:55;;;;;;;13.40;9.80;;;21.90;85.20;;;;;;4864370;29;20037;-90
2021/07/11 07:05:53;;;;;;;15.48;9.95;;;21.90;85.40;;;;;;4864020;29;20051;-90
2021/07/11 07:08:40;;;;;;;17.00;9.05;;;21.90;85.30;;;;;;4808400;29;20401;-90
2021/07/11 07:14:28;;;;;;;14.13;10.13;;;22.00;86.20;;;;;;4880071;29;20093;-91
2021/07/11 07:20:29;;;;;;;13.85;9.45;;;22.20;85.30;;;;;;4822860;29;20041;-89
2021/07/11 07:25:21;;;;;;;13.93;9.27;;;22.30;84.00;;;;;;4967023;23;20111;-89
2021/07/11 07:27:47;;;;;;;13.63;8.63;;;22.40;84.10;;;;;;4936882;29;20027;-89
2021/07/11 07:30:20;;;;;;;13.48;9.32;;;22.40;84.40;;;;;;4916683;29;20032;-90
2021/07/11 07:32:50;;;;;;;14.73;9.23;;;22.50;84.40;;;;;;4938664;29;20058;-88
2021/07/11 07:35:17;;;;;;;12.27;9.18;;;22.40;84.20;;;;;;4925263;29;20024;-88
2021/07/11 07:37:45;;;;;;;12.00;8.75;;;22.40;83.10;;;;;;4919874;29;20028;-88
2021/07/11 07:40:11;;;;;;;14.15;9.60;;;22.50;83.30;;;;;;4919952;29;20083;-90
2021/07/11 07:42:37;;;;;;;12.55;9.82;;;22.60;83.80;;;;;;4924904;29;20049;-90
2021/07/11 07:45:24;;;;;;;16.95;11.63;;;22.60;83.90;;;;;;4923973;29;20028;-89
2021/07/11 07:47:50;;;;;;;14.10;10.98;;;22.70;84.70;;;;;;4921789;29;20042;-88
2021/07/11 07:50:16;;;;;;;16.65;11.55;;;22.80;84.70;;;;;;4921289;29;20036;-87
2021/07/11 07:52:42;;;;;;;16.38;11.65;;;22.80;85.20;;;;;;4935992;29;20032;-88
2021/07/11 07:55:08;;;;;;;16.45;12.73;;;22.90;84.80;;;;;;4923127;29;20403;-90
2021/07/11 07:57:34;;;;;;;17.75;12.90;;;22.80;83.90;;;;;;4923167;29;20020;-91
2021/07/11 07:59:59;;;;;;;20.45;12.80;;;22.80;84.80;;;;;;4924083;29;20115;-87
2021/07/11 08:02:25;;;;;;;21.55;13.27;;;22.90;84.50;;;;;;4921580;29;20031;-90
2021/07/11 08:04:51;;;;;;;19.20;12.85;;;22.90;84.60;;;;;;4938733;29;20161;-90
2021/07/11 08:07:17;;;;;;;17.33;12.95;;;23.00;84.70;;;;;;4920700;29;20123;-86
2021/07/11 08:09:42;;;;;;;17.55;12.88;;;23.00;83.70;;;;;;4921036;29;20061;-87
2021/07/11 08:49:07;;;;;;;16.20;13.20;;;24.00;80.50;;;;;;4937131;29;20055;-95
2021/07/11 08:51:33;;;;;;;16.48;14.00;;;24.00;79.90;;;;;;4923493;29;20028;-93
2021/07/11 08:59:09;;;;;;;22.17;14.57;;;23.90;79.50;;;;;;5785744;23;20054;-90
2021/07/11 09:01:35;;;;;;;16.17;14.07;;;23.70;80.80;;;;;;4925251;29;20023;-89
2021/07/11 09:06:43;;;;;;;19.58;13.63;;;23.40;81.80;;;;;;5077582;23;20460;-77
2021/07/11 09:09:09;;;;;;;22.38;13.70;;;23.50;80.70;;;;;;4913221;29;20036;-72
2021/07/11 09:11:50;;;;;;;26.80;13.27;;;23.90;79.10;;;;;;4912049;29;20040;-72
2021/07/11 09:14:27;;;;;;;23.73;13.57;;;23.80;79.60;;;;;;4897481;29;20025;-69
2021/07/11 09:16:55;;;;;;;19.15;13.20;;;23.80;79.40;;;;;;4877625;29;20076;-70
2021/07/11 09:19:30;;;;;;;23.55;13.15;;;23.60;83.20;;;;;;4894093;29;20054;-72
2021/07/11 09:22:00;;;;;;;19.70;12.02;;;25.00;73.30;;;;;;4893676;29;20181;-70
2021/07/11 09:24:27;;;;;;;22.40;13.10;;;23.90;78.50;;;;;;4888223;29;20029;-67
2021/07/11 09:26:55;;;;;;;14.20;12.15;;;24.00;78.20;;;;;;4894327;29;20234;-70
2021/07/11 09:29:29;;;;;;;15.60;12.23;;;26.60;67.40;;;;;;4895531;29;20024;-73
2021/07/11 09:31:54;;;;;;;16.00;12.77;;;27.00;66.80;;;;;;4866025;29;20032;-70
2021/07/11 09:34:22;;;;;;;14.73;12.95;;;27.70;60.90;;;;;;4894751;29;20129;-67
2021/07/11 09:37:12;;;;;;;16.90;11.52;;;27.50;62.40;;;;;;4892570;29;20020;-69
2021/07/11 09:39:53;;;;;;;21.02;11.25;;;27.70;62.60;;;;;;4892216;29;20406;-69
2021/07/11 09:42:31;;;;;;;20.98;11.50;;;25.80;69.30;;;;;;4880740;29;20033;-69
2021/07/11 09:44:59;;;;;;;16.92;12.60;;;24.50;76.00;;;;;;4893328;29;20029;-74
2021/07/11 09:47:27;;;;;;;18.90;11.98;;;25.80;71.10;;;;;;4880353;29;20028;-66
2021/07/11 09:50:23;;;;;;;15.55;11.50;;;26.10;69.10;;;;;;4878460;29;20028;-72
2021/07/11 09:52:53;;;;;;;15.82;11.80;;;26.60;67.90;;;;;;4894091;29;20052;-67
2021/07/11 09:55:25;;;;;;;19.43;11.00;;;25.90;71.10;;;;;;4899386;29;20032;-65
2021/07/11 09:57:59;;;;;;;18.70;10.60;;;25.50;72.70;;;;;;4894502;29;20059;-70
2021/07/11 10:00:30;;;;;;;13.70;10.38;;;25.30;73.20;;;;;;4882336;29;20114;-70
2021/07/11 10:03:02;;;;;;;13.38;10.52;;;25.20;73.80;;;;;;4895775;29;20092;-66
2021/07/11 10:05:29;;;;;;;15.07;9.95;;;25.20;74.00;;;;;;4894133;29;20498;-63
2021/07/11 10:07:55;;;;;;;15.38;10.95;;;25.20;73.50;;;;;;4879043;29;20036;-64
2021/07/11 10:10:24;;;;;;;12.93;10.38;;;25.20;74.00;;;;;;4894174;29;20055;-63
2021/07/11 10:12:51;;;;;;;16.02;11.07;;;25.30;74.50;;;;;;4879041;29;20028;-63
2021/07/11 10:15:19;;;;;;;17.33;10.43;;;25.20;73.20;;;;;;4903533;29;20053;-63
2021/07/11 10:18:00;;;;;;;14.82;10.43;;;25.20;73.40;;;;;;4898569;29;20119;-64
2021/07/11 10:20:37;;;;;;;15.40;10.25;;;25.20;73.20;;;;;;4897676;29;20052;-65
2021/07/11 10:23:04;;;;;;;15.13;10.40;;;25.20;73.70;;;;;;4899215;29;20044;-64
2021/07/11 10:25:31;;;;;;;13.88;9.77;;;25.20;73.60;;;;;;4901276;29;20029;-63
2021/07/11 10:28:11;;;;;;;13.95;10.40;;;25.20;73.60;;;;;;4897705;29;20032;-62
2021/07/11 10:30:45;;;;;;;12.95;8.75;;;25.20;73.80;;;;;;4893883;29;20056;-64
2021/07/11 10:33:13;;;;;;;16.38;10.77;;;25.20;74.80;;;;;;4898588;29;20068;-65
2021/07/11 10:35:58;;;;;;;13.82;10.80;;;25.20;74.90;;;;;;4882173;29;20032;-69
2021/07/11 10:38:44;;;;;;;15.48;11.27;;;25.20;73.90;;;;;;4893769;29;20525;-66
2021/07/11 10:41:16;;;;;;;16.67;10.93;;;25.20;74.00;;;;;;4882239;29;20088;-65
2021/07/11 10:43:59;;;;;;;16.65;9.75;;;25.20;73.80;;;;;;4900663;29;20033;-66
2021/07/11 10:46:32;;;;;;;14.25;10.30;;;25.20;73.30;;;;;;4883759;29;20521;-66
2021/07/11 10:49:14;;;;;;;12.27;10.15;;;25.20;73.70;;;;;;4890098;29;20047;-65
2021/07/11 10:51:45;;;;;;;14.63;9.98;;;25.20;74.00;;;;;;4916853;29;20446;-66
2021/07/11 10:54:32;;;;;;;12.65;10.73;;;25.10;74.20;;;;;;4917016;29;20107;-73
2021/07/11 10:57:01;;;;;;;15.45;10.10;;;25.20;74.00;;;;;;4899699;29;20033;-66
2021/07/11 10:59:38;;;;;;;12.88;10.70;;;25.20;74.00;;;;;;4896947;29;20040;-69
2021/07/11 11:02:17;;;;;;;15.75;10.15;;;25.10;73.80;;;;;;4898418;29;20039;-67
2021/07/11 11:04:44;;;;;;;14.63;10.77;;;25.10;73.90;;;;;;4896953;29;20040;-68
2021/07/11 11:07:14;;;;;;;13.40;10.98;;;25.10;73.90;;;;;;4898859;29;20060;-67
2021/07/11 11:09:43;;;;;;;12.40;9.90;;;25.10;74.10;;;;;;4898709;29;20033;-67
2021/07/11 11:12:24;;;;;;;14.95;11.15;;;25.00;73.90;;;;;;4898027;29;20482;-68
2021/07/11 11:14:58;;;;;;;13.20;10.52;;;25.00;74.40;;;;;;4898239;29;20061;-67
2021/07/11 11:17:36;;;;;;;13.95;11.18;;;25.00;75.90;;;;;;4898716;29;20029;-67
2021/07/11 11:20:09;;;;;;;11.52;9.77;;;25.00;75.60;;;;;;4898879;29;20047;-68
2021/07/11 11:22:35;;;;;;;12.85;10.60;;;25.00;75.00;;;;;;4881725;29;20095;-67
2021/07/11 11:25:03;;;;;;;13.93;11.35;;;25.00;75.10;;;;;;4898072;29;20036;-66
2021/07/11 11:27:35;;;;;;;14.77;11.35;;;25.00;76.40;;;;;;4881722;29;20032;-67
2021/07/11 11:30:15;;;;;;;16.75;11.45;;;24.90;75.10;;;;;;4909675;29;20091;-72
2021/07/11 11:32:41;;;;;;;;;;;24.90;74.20;;;;;;4917724;29;20446;-64
2021/07/11 11:35:08;;;;;;;13.90;10.90;;;24.90;74.50;;;;;;4904267;29;19994;-63
2021/07/11 11:37:37;;;;;;;13.10;11.40;;;24.90;74.90;;;;;;4898103;29;20439;-63
2021/07/11 11:40:09;;;;;;;16.88;12.98;;;25.00;75.40;;;;;;4880917;29;20490;-64
2021/07/11 11:42:35;;;;;;;18.85;14.32;;;25.00;75.50;;;;;;4881291;29;20040;-65
2021/07/11 11:45:06;;;;;;;17.27;14.38;;;25.00;75.50;;;;;;4880825;29;20043;-64
2021/07/11 11:47:33;;;;;;;20.85;16.77;;;24.90;74.80;;;;;;4897393;29;20024;-63
2021/07/11 11:50:18;;;;;;;21.95;16.45;;;24.90;75.60;;;;;;4897439;29;20055;-66
2021/07/11 11:52:46;;;;;;;24.58;18.33;;;24.80;76.50;;;;;;4897978;29;20025;-64
2021/07/11 11:55:15;;;;;;;22.92;17.95;;;24.80;78.90;;;;;;4897881;29;20510;-65
2021/07/11 11:57:41;;;;;;;21.40;16.58;;;24.70;76.90;;;;;;4897696;29;20043;-65
2021/07/11 12:00:21;;;;;;;23.17;17.45;;;24.70;76.60;;;;;;4880681;29;20059;-64
2021/07/11 12:02:57;;;;;;;24.83;17.90;;;24.60;75.80;;;;;;4879359;29;20040;-63
2021/07/11 12:05:22;;;;;;;25.35;19.63;;;24.60;78.20;;;;;;4880491;29;20048;-63
2021/07/11 12:07:48;;;;;;;25.13;19.27;;;24.50;78.80;;;;;;4901929;29;20036;-63
2021/07/11 12:10:14;;;;;;;23.15;18.63;;;24.50;78.70;;;;;;4904497;29;20028;-64
2021/07/11 12:12:40;;;;;;;21.42;16.25;;;24.50;79.80;;;;;;4897177;29;20024;-65
2021/07/11 12:15:06;;;;;;;25.00;19.42;;;24.50;78.50;;;;;;4877121;29;20113;-66
2021/07/11 12:17:33;;;;;;;25.75;19.67;;;24.50;77.60;;;;;;4878905;29;20029;-65
2021/07/11 12:19:59;;;;;;;28.55;19.95;;;24.40;78.10;;;;;;4877736;29;20033;-64
2021/07/11 12:22:26;;;;;;;29.70;21.08;;;24.40;78.20;;;;;;4878802;29;20448;-65
2021/07/11 12:25:06;;;;;;;29.25;20.23;;;24.40;77.70;;;;;;4861709;29;20061;-68
2021/07/11 12:27:34;;;;;;;39.63;21.75;;;24.40;78.10;;;;;;4894322;29;20029;-70
2021/07/11 12:30:09;;;;;;;40.38;20.60;;;24.30;77.90;;;;;;4895915;29;20028;-67
2021/07/11 12:32:49;;;;;;;38.00;20.92;;;24.30;77.70;;;;;;4881205;29;20028;-72
2021/07/11 12:35:16;;;;;;;37.72;20.90;;;24.30;77.90;;;;;;4906858;29;20036;-70
2021/07/11 12:37:58;;;;;;;31.52;20.45;;;24.30;78.10;;;;;;4916268;29;20044;-71
2021/07/11 12:40:26;;;;;;;31.60;20.85;;;24.30;78.20;;;;;;4898987;29;20036;-74
2021/07/11 12:43:12;;;;;;;31.30;20.90;;;24.30;78.20;;;;;;4916165;29;20111;-72
2021/07/11 12:45:38;;;;;;;30.35;20.58;;;24.30;78.50;;;;;;4905155;29;20186;-73
2021/07/11 12:48:04;;;;;;;28.45;20.02;;;24.30;78.70;;;;;;4906878;29;20139;-72
2021/07/11 12:50:34;;;;;;;27.63;20.10;;;24.20;78.90;;;;;;4881870;29;20029;-70
2021/07/11 12:53:00;;;;;;;27.58;19.60;;;24.20;79.00;;;;;;4890904;29;20107;-71
2021/07/11 12:55:26;;;;;;;28.15;19.70;;;24.30;79.20;;;;;;4899093;29;20164;-70
2021/07/11 12:57:52;;;;;;;26.63;20.15;;;24.20;79.20;;;;;;4903932;29;20028;-70
2021/07/11 13:00:33;;;;;;;27.73;20.20;;;24.20;79.70;;;;;;4888521;29;20028;-71
2021/07/11 13:02:59;;;;;;;;;;;24.20;80.20;;;;;;4905834;29;20017;-72
2021/07/11 13:05:40;;;;;;;25.67;19.52;;;24.20;80.40;;;;;;4895646;29;19912;-69
2021/07/11 13:08:10;;;;;;;26.67;19.98;;;24.10;80.90;;;;;;4896402;29;20041;-71
2021/07/11 13:10:41;;;;;;;25.98;20.17;;;24.10;81.20;;;;;;4907290;29;20028;-71
2021/07/11 13:13:11;;;;;;;27.77;21.30;;;24.10;81.00;;;;;;4907278;29;20028;-72
2021/07/11 13:15:38;;;;;;;25.15;20.52;;;24.20;81.50;;;;;;4914418;29;20159;-71
2021/07/11 13:18:06;;;;;;;26.13;20.73;;;24.10;81.00;;;;;;4914795;29;20027;-71
2021/07/11 13:20:32;;;;;;;24.90;20.33;;;24.00;80.80;;;;;;4911903;29;20024;-71
2021/07/11 13:22:58;;;;;;;24.95;19.65;;;24.00;80.90;;;;;;4895149;29;20046;-70
2021/07/11 13:25:23;;;;;;;25.50;20.00;;;24.00;81.00;;;;;;4894304;29;20029;-71
2021/07/11 13:27:49;;;;;;;24.13;18.88;;;24.10;81.20;;;;;;4881897;29;20037;-70
2021/07/11 13:30:17;;;;;;;24.35;19.65;;;24.00;81.20;;;;;;4902564;29;20119;-71
2021/07/11 13:32:43;;;;;;;22.88;16.88;;;24.00;81.50;;;;;;4905629;29;20020;-67
2021/07/11 13:35:10;;;;;;;22.48;18.38;;;24.00;81.10;;;;;;4885512;29;20051;-67
2021/07/11 13:37:35;;;;;;;23.50;17.58;;;24.00;81.00;;;;;;4904298;29;20025;-67
2021/07/11 13:40:04;;;;;;;24.75;18.42;;;24.00;81.10;;;;;;4884998;29;20036;-67